Time;durP1;ratioP1;P1;durP2;ratioP2;P2;SDS_P1;SDS_P2;PMS_P1;PMS_P2;Temp;Humidity;BMP_temperature;BMP_pressure;BME280_temperature;BME280_humidity;BME280_pressure;Samples;Min_cycle;Max_cycle;Signal;HPM_P1;HPM_P2
2023/09/01 00:01:18;;;;;;;3.80;1.43;;;13.40;99.90;;;;;;4999835;28;20301;-56
2023/09/01 00:04:01;;;;;;;2.40;1.60;;;13.40;99.90;;;;;;5027104;28;20199;-48
2023/09/01 00:06:28;;;;;;;3.20;1.40;;;13.40;99.90;;;;;;5018785;28;21556;-51
2023/09/01 00:08:55;;;;;;;5.40;1.27;;;13.40;99.90;;;;;;5025989;28;20216;-55
2023/09/01 00:11:21;;;;;;;2.50;1.33;;;13.40;99.90;;;;;;5023798;28;20860;-53
2023/09/01 00:13:48;;;;;;;5.63;2.00;;;13.50;99.90;;;;;;5029098;28;20233;-55
2023/09/01 00:16:16;;;;;;;3.10;1.17;;;13.50;99.90;;;;;;4998358;28;20270;-48
2023/09/01 00:18:43;;;;;;;4.83;1.20;;;13.50;99.90;;;;;;5018975;28;20188;-54
2023/09/01 00:21:10;;;;;;;2.83;1.37;;;13.50;99.90;;;;;;5019503;28;20236;-50
2023/09/01 00:23:37;;;;;;;3.07;1.27;;;13.50;99.90;;;;;;5026774;28;20277;-55
2023/09/01 00:26:04;;;;;;;5.03;1.97;;;13.60;99.90;;;;;;5033178;28;20210;-51
2023/09/01 00:28:31;;;;;;;2.67;1.17;;;13.60;99.90;;;;;;5027345;28;20273;-51
2023/09/01 00:31:00;;;;;;;4.63;1.07;;;13.60;99.90;;;;;;5015021;28;20218;-53
2023/09/01 00:33:30;;;;;;;2.77;1.37;;;13.60;99.90;;;;;;5010743;28;20211;-49
2023/09/01 00:35:59;;;;;;;3.30;1.70;;;13.60;99.90;;;;;;5026665;28;20220;-55
2023/09/01 00:38:29;;;;;;;2.17;1.20;;;13.60;99.90;;;;;;5014147;28;20203;-54
2023/09/01 00:40:55;;;;;;;2.80;1.40;;;13.60;99.90;;;;;;5031296;28;20215;-54
2023/09/01 00:43:22;;;;;;;5.10;1.10;;;13.70;99.90;;;;;;5025546;28;20188;-53
2023/09/01 00:45:50;;;;;;;2.87;1.37;;;13.70;99.90;;;;;;5024191;28;20223;-56
2023/09/01 00:48:18;;;;;;;3.10;1.20;;;13.70;99.90;;;;;;4997229;28;20236;-54
2023/09/01 00:50:49;;;;;;;4.27;1.87;;;13.70;99.90;;;;;;5028386;28;20273;-54
2023/09/01 00:53:17;;;;;;;2.97;1.37;;;13.70;99.90;;;;;;5013755;28;20192;-52
2023/09/01 00:55:44;;;;;;;2.33;1.13;;;13.70;99.90;;;;;;5020826;28;20224;-56
2023/09/01 00:58:11;;;;;;;2.67;1.50;;;13.70;99.90;;;;;;5019974;28;20212;-49
2023/09/01 01:00:39;;;;;;;2.50;1.10;;;13.70;99.90;;;;;;5028305;28;20227;-53
2023/09/01 01:03:09;;;;;;;4.27;1.70;;;13.70;99.90;;;;;;5003223;28;20219;-47
2023/09/01 01:05:44;;;;;;;2.73;1.47;;;13.70;99.90;;;;;;5022880;28;20384;-56
2023/09/01 01:08:23;;;;;;;3.83;1.47;;;13.70;99.90;;;;;;5025742;28;20261;-51
2023/09/01 01:10:58;;;;;;;3.70;1.60;;;13.70;99.90;;;;;;5022376;28;20254;-56
2023/09/01 01:13:30;;;;;;;2.03;1.30;;;13.70;99.90;;;;;;5021025;28;20491;-57
2023/09/01 01:15:58;;;;;;;6.07;1.77;;;13.70;99.90;;;;;;5028475;28;20216;-55
2023/09/01 01:18:27;;;;;;;2.67;1.10;;;13.70;99.90;;;;;;5010070;28;20876;-57
2023/09/01 01:21:06;;;;;;;2.73;1.60;;;13.70;99.90;;;;;;5023686;28;20199;-54
2023/09/01 01:23:35;;;;;;;2.90;1.40;;;13.70;99.90;;;;;;5023875;28;20199;-56
2023/09/01 01:26:02;;;;;;;4.30;1.40;;;13.70;99.90;;;;;;5021212;28;20219;-52
2023/09/01 01:28:29;;;;;;;4.93;1.77;;;13.70;99.90;;;;;;5029408;28;20719;-54
2023/09/01 01:30:57;;;;;;;2.07;1.43;;;13.60;99.90;;;;;;5032531;28;20212;-55
2023/09/01 01:33:33;;;;;;;5.03;1.47;;;13.60;99.90;;;;;;5010299;28;20888;-57
2023/09/01 01:36:23;;;;;;;9.50;1.57;;;13.60;99.90;;;;;;5019916;28;20224;-52
2023/09/01 01:38:57;;;;;;;2.57;1.40;;;13.60;99.90;;;;;;5032187;28;20211;-57
2023/09/01 01:41:32;;;;;;;3.77;1.60;;;13.60;99.90;;;;;;5018040;28;20199;-54
2023/09/01 01:44:00;;;;;;;2.00;1.33;;;13.60;99.90;;;;;;5033054;28;20199;-54
2023/09/01 01:46:28;;;;;;;1.77;1.67;;;13.50;99.90;;;;;;5028978;28;20270;-55
2023/09/01 01:48:55;;;;;;;3.40;1.53;;;13.50;99.90;;;;;;5009910;28;20757;-57
2023/09/01 01:51:22;;;;;;;3.47;1.60;;;13.50;99.90;;;;;;5016176;28;20204;-56
2023/09/01 01:53:51;;;;;;;3.03;1.50;;;13.50;99.90;;;;;;5030958;28;20199;-54
2023/09/01 01:56:17;;;;;;;1.60;1.50;;;13.50;99.90;;;;;;5017956;28;20227;-51
2023/09/01 01:58:44;;;;;;;5.90;1.80;;;13.40;99.90;;;;;;5026134;28;20200;-55
2023/09/01 02:01:11;;;;;;;2.47;1.70;;;13.40;99.90;;;;;;5023733;28;20192;-51
2023/09/01 02:03:38;;;;;;;4.63;1.77;;;13.40;99.90;;;;;;5027350;28;20208;-56
2023/09/01 02:06:05;;;;;;;6.07;1.70;;;13.40;99.90;;;;;;5005340;28;20746;-48
2023/09/01 02:08:32;;;;;;;1.70;1.30;;;13.40;99.90;;;;;;5020704;28;20196;-52
2023/09/01 02:11:00;;;;;;;2.90;1.70;;;13.40;99.90;;;;;;5023769;28;20224;-51
2023/09/01 02:13:27;;;;;;;3.80;1.60;;;13.30;99.90;;;;;;5014717;28;20207;-54
2023/09/01 02:15:54;;;;;;;3.37;1.60;;;13.30;99.90;;;;;;5029341;28;20216;-54
2023/09/01 02:18:21;;;;;;;3.77;1.93;;;13.30;99.90;;;;;;5022054;28;20258;-55
2023/09/01 02:20:48;;;;;;;4.70;1.47;;;13.20;99.90;;;;;;5008819;28;20196;-56
2023/09/01 02:23:17;;;;;;;4.80;1.60;;;13.20;99.90;;;;;;5013541;28;20254;-53
2023/09/01 02:25:44;;;;;;;2.07;1.70;;;13.20;99.90;;;;;;5025915;28;20216;-54
2023/09/01 02:28:12;;;;;;;4.30;1.90;;;13.20;99.90;;;;;;5014338;28;20200;-54
2023/09/01 02:30:39;;;;;;;3.53;1.80;;;13.20;99.90;;;;;;5035880;28;20296;-56
2023/09/01 02:33:06;;;;;;;3.63;1.87;;;13.20;99.90;;;;;;5029969;28;20256;-53
2023/09/01 02:35:33;;;;;;;1.97;1.63;;;13.20;99.90;;;;;;5015382;28;21036;-57
2023/09/01 02:38:00;;;;;;;3.53;1.70;;;13.20;99.90;;;;;;5023719;28;20651;-52
2023/09/01 02:40:27;;;;;;;2.37;1.73;;;13.20;99.90;;;;;;5027924;28;20196;-57
2023/09/01 02:42:53;;;;;;;5.07;2.27;;;13.10;99.90;;;;;;5037214;28;20665;-53
2023/09/01 02:45:23;;;;;;;2.13;1.90;;;13.10;99.90;;;;;;5013934;28;20850;-56
2023/09/01 02:47:49;;;;;;;4.07;2.13;;;13.10;99.90;;;;;;5035581;28;20202;-54
2023/09/01 02:50:16;;;;;;;6.17;1.90;;;13.10;99.90;;;;;;5011878;28;20240;-51
2023/09/01 02:52:43;;;;;;;3.73;1.87;;;13.10;99.90;;;;;;5024602;28;20196;-53
2023/09/01 02:55:10;;;;;;;2.20;1.80;;;13.10;99.90;;;;;;5017782;28;20218;-52
2023/09/01 02:57:36;;;;;;;6.30;2.00;;;13.10;99.90;;;;;;5027417;28;20249;-55
2023/09/01 03:00:14;;;;;;;2.67;2.20;;;13.10;99.90;;;;;;5016266;28;20305;-53
2023/09/01 03:02:43;;;;;;;3.70;2.10;;;13.10;99.90;;;;;;5027531;28;20195;-52
2023/09/01 03:05:11;;;;;;;4.13;1.93;;;13.10;99.90;;;;;;5025382;28;20629;-55
2023/09/01 03:07:38;;;;;;;4.73;2.13;;;13.10;99.90;;;;;;5009660;28;20215;-55
2023/09/01 03:10:07;;;;;;;2.63;2.27;;;13.10;99.90;;;;;;5014167;28;20203;-47
2023/09/01 03:12:35;;;;;;;2.43;2.13;;;13.10;99.90;;;;;;5016544;28;20686;-50
2023/09/01 03:15:02;;;;;;;3.97;1.93;;;13.10;99.90;;;;;;5018308;28;20769;-51
2023/09/01 03:17:30;;;;;;;6.87;2.00;;;13.10;99.90;;;;;;5021143;28;20800;-56
2023/09/01 03:19:58;;;;;;;5.20;1.87;;;13.00;99.90;;;;;;5024279;28;20225;-56
2023/09/01 03:22:25;;;;;;;3.40;2.03;;;13.00;99.90;;;;;;5002945;28;20212;-53
2023/09/01 03:24:53;;;;;;;4.03;2.20;;;13.00;99.90;;;;;;5019788;28;20219;-54
2023/09/01 03:27:21;;;;;;;7.20;2.43;;;13.00;99.90;;;;;;5019253;28;20892;-52
2023/09/01 03:29:53;;;;;;;2.20;1.90;;;13.00;99.90;;;;;;5021931;28;20582;-53
2023/09/01 03:32:21;;;;;;;4.10;2.20;;;13.00;99.90;;;;;;5011105;28;20203;-53
2023/09/01 03:34:48;;;;;;;4.03;2.00;;;12.90;99.90;;;;;;5036895;28;20272;-57
2023/09/01 03:37:16;;;;;;;4.63;2.20;;;12.90;99.90;;;;;;5025929;28;20607;-47
2023/09/01 03:39:43;;;;;;;2.63;2.20;;;12.90;99.90;;;;;;4996509;28;20204;-52
2023/09/01 03:42:10;;;;;;;2.83;1.97;;;12.90;99.90;;;;;;5025708;28;20320;-50
2023/09/01 03:44:36;;;;;;;5.20;2.40;;;12.90;99.90;;;;;;5020855;28;20208;-53
2023/09/01 03:47:03;;;;;;;4.33;2.13;;;12.90;99.90;;;;;;5018668;28;20216;-50
2023/09/01 03:49:30;;;;;;;2.80;2.20;;;12.90;99.90;;;;;;5023271;28;20279;-53
2023/09/01 03:51:57;;;;;;;4.47;2.03;;;12.90;99.90;;;;;;5032831;28;20250;-53
2023/09/01 03:54:26;;;;;;;4.90;2.50;;;12.80;99.90;;;;;;5008437;28;20251;-56
2023/09/01 03:56:52;;;;;;;4.77;1.97;;;12.80;99.90;;;;;;5019253;28;20207;-49
2023/09/01 03:59:20;;;;;;;4.67;2.80;;;12.80;99.90;;;;;;5012729;28;20214;-53
2023/09/01 04:01:47;;;;;;;4.73;2.23;;;12.80;99.90;;;;;;5000513;28;20203;-56
2023/09/01 04:04:14;;;;;;;4.20;2.00;;;12.70;99.90;;;;;;5028014;28;20278;-52
2023/09/01 04:06:42;;;;;;;3.37;2.10;;;12.70;99.90;;;;;;5008074;28;20361;-55
2023/09/01 04:09:09;;;;;;;2.03;1.90;;;12.70;99.90;;;;;;5020547;28;20184;-56
2023/09/01 04:11:38;;;;;;;7.43;2.37;;;12.70;99.90;;;;;;4999489;28;20208;-49
2023/09/01 04:14:07;;;;;;;3.70;2.20;;;12.70;99.90;;;;;;5032990;28;20269;-56
2023/09/01 04:16:33;;;;;;;5.30;2.40;;;12.70;99.90;;;;;;5009994;28;20200;-55
2023/09/01 04:19:00;;;;;;;6.83;2.47;;;12.60;99.90;;;;;;5015874;28;20196;-56
2023/09/01 04:21:27;;;;;;;4.50;2.10;;;12.60;99.90;;;;;;5008021;28;20203;-54
2023/09/01 04:23:54;;;;;;;2.63;2.10;;;12.60;99.90;;;;;;5016289;28;20245;-53
2023/09/01 04:26:21;;;;;;;3.67;2.33;;;12.60;99.90;;;;;;5001650;28;20378;-50
2023/09/01 04:28:49;;;;;;;6.07;2.63;;;12.60;99.90;;;;;;5026663;28;20191;-51
2023/09/01 04:31:18;;;;;;;4.40;2.13;;;12.60;99.90;;;;;;5026189;28;20214;-52
2023/09/01 04:33:46;;;;;;;5.40;2.03;;;12.60;99.90;;;;;;5016718;28;20219;-53
2023/09/01 04:36:13;;;;;;;3.60;2.10;;;12.60;99.90;;;;;;5012366;28;20330;-55
2023/09/01 04:38:41;;;;;;;5.77;2.00;;;12.60;99.90;;;;;;5021059;28;20223;-55
2023/09/01 04:41:08;;;;;;;5.40;2.60;;;12.60;99.90;;;;;;4996697;28;20239;-47
2023/09/01 04:43:35;;;;;;;5.67;2.33;;;12.60;99.90;;;;;;5016312;28;20228;-52
2023/09/01 04:46:04;;;;;;;3.53;2.00;;;12.60;99.90;;;;;;5015695;28;20223;-52
2023/09/01 04:48:31;;;;;;;3.57;1.87;;;12.60;99.90;;;;;;5010608;28;20433;-52
2023/09/01 04:51:00;;;;;;;7.37;2.77;;;12.70;99.90;;;;;;5009224;28;20421;-55
2023/09/01 04:53:27;;;;;;;4.37;2.27;;;12.60;99.90;;;;;;5012428;28;20231;-54
2023/09/01 04:55:53;;;;;;;5.73;2.00;;;12.70;99.90;;;;;;5001705;28;20251;-56
2023/09/01 04:58:20;;;;;;;4.37;1.87;;;12.70;99.90;;;;;;5020394;28;20219;-53
2023/09/01 05:00:47;;;;;;;3.23;1.80;;;12.70;99.90;;;;;;5020584;28;20191;-50
2023/09/01 05:03:15;;;;;;;5.17;2.70;;;12.60;99.90;;;;;;5024119;28;20200;-54
2023/09/01 05:05:43;;;;;;;4.07;1.80;;;12.70;99.90;;;;;;5016794;28;20766;-51
2023/09/01 05:08:09;;;;;;;2.80;2.20;;;12.70;99.90;;;;;;5017070;28;20206;-54
2023/09/01 05:10:36;;;;;;;4.13;2.10;;;12.70;99.90;;;;;;5014878;28;20358;-54
2023/09/01 05:13:04;;;;;;;3.57;2.00;;;12.80;99.90;;;;;;5011903;28;20377;-54
2023/09/01 05:15:31;;;;;;;3.73;2.03;;;12.80;99.90;;;;;;5032095;28;20282;-54
2023/09/01 05:17:58;;;;;;;4.40;2.37;;;12.80;99.90;;;;;;5020583;28;20304;-55
2023/09/01 05:20:26;;;;;;;3.87;1.93;;;12.80;99.90;;;;;;5021571;28;20565;-56
2023/09/01 05:22:53;;;;;;;3.17;2.30;;;12.80;99.90;;;;;;5020495;28;20183;-52
2023/09/01 05:25:20;;;;;;;4.73;2.30;;;12.90;99.90;;;;;;5017886;28;20223;-56
2023/09/01 05:27:47;;;;;;;3.07;2.10;;;12.90;99.90;;;;;;4997852;28;20200;-62
2023/09/01 05:30:14;;;;;;;4.30;2.07;;;12.90;99.90;;;;;;5010183;28;20203;-53
2023/09/01 05:32:41;;;;;;;5.13;2.20;;;13.00;99.90;;;;;;5016234;28;20208;-49
2023/09/01 05:35:08;;;;;;;12.50;2.60;;;13.00;99.90;;;;;;5009505;28;20223;-51
2023/09/01 05:37:37;;;;;;;2.70;1.97;;;13.00;99.90;;;;;;5028030;28;20569;-54
2023/09/01 05:40:04;;;;;;;2.43;1.83;;;13.00;99.90;;;;;;5009723;28;20204;-47
2023/09/01 05:42:31;;;;;;;6.83;1.90;;;13.10;99.90;;;;;;5009036;28;21942;-50
2023/09/01 05:44:58;;;;;;;3.73;2.13;;;13.20;99.90;;;;;;5025996;28;20226;-48
2023/09/01 05:47:25;;;;;;;3.07;1.70;;;13.20;99.90;;;;;;5016981;28;20201;-52
2023/09/01 05:49:51;;;;;;;2.90;1.73;;;13.30;99.90;;;;;;5025383;28;20195;-51
2023/09/01 05:52:18;;;;;;;3.10;1.90;;;13.30;99.90;;;;;;5005767;28;20226;-47
2023/09/01 05:54:46;;;;;;;4.27;2.00;;;13.40;99.90;;;;;;5007309;28;20232;-48
2023/09/01 05:57:13;;;;;;;2.80;2.00;;;13.40;99.90;;;;;;5018742;28;20281;-53
2023/09/01 05:59:41;;;;;;;2.43;1.60;;;13.40;99.90;;;;;;4997093;28;20200;-46
2023/09/01 06:02:08;;;;;;;5.73;1.87;;;13.40;99.90;;;;;;5013288;28;20274;-55
2023/09/01 06:04:35;;;;;;;2.80;1.60;;;13.40;99.90;;;;;;5012362;28;20294;-48
2023/09/01 06:07:03;;;;;;;3.33;1.90;;;13.50;99.90;;;;;;5013465;28;20925;-49
2023/09/01 06:09:29;;;;;;;3.67;1.97;;;13.50;99.90;;;;;;5013813;28;20283;-48
2023/09/01 06:11:58;;;;;;;6.37;2.07;;;13.50;99.90;;;;;;5016640;28;20199;-53
2023/09/01 06:14:24;;;;;;;4.67;1.60;;;13.60;99.90;;;;;;5005735;28;20315;-50
2023/09/01 06:16:51;;;;;;;2.20;1.97;;;13.60;99.90;;;;;;5012851;28;20948;-50
2023/09/01 06:19:18;;;;;;;1.80;1.70;;;13.60;99.90;;;;;;5025883;28;20621;-53
2023/09/01 06:21:45;;;;;;;3.30;1.70;;;13.60;99.90;;;;;;5014259;28;20957;-49
2023/09/01 06:24:12;;;;;;;4.00;1.77;;;13.70;99.90;;;;;;5024696;28;20215;-50
2023/09/01 06:26:39;;;;;;;2.17;1.77;;;13.70;99.90;;;;;;4998633;28;20196;-53
2023/09/01 06:29:07;;;;;;;5.53;1.60;;;13.80;99.90;;;;;;5010723;28;20199;-49
2023/09/01 06:31:34;;;;;;;3.67;1.87;;;13.90;99.90;;;;;;5008005;28;20305;-50
2023/09/01 06:34:01;;;;;;;5.73;1.50;;;13.90;99.90;;;;;;5022775;28;20191;-47
2023/09/01 06:36:29;;;;;;;5.47;1.43;;;14.00;99.90;;;;;;5008251;28;20208;-51
2023/09/01 06:38:57;;;;;;;4.07;1.20;;;14.00;99.90;;;;;;5030486;28;20196;-48
2023/09/01 06:41:24;;;;;;;1.90;1.47;;;14.10;99.90;;;;;;5006317;28;20204;-49
2023/09/01 06:43:50;;;;;;;2.33;1.67;;;14.20;99.90;;;;;;5022443;28;20685;-49
2023/09/01 06:46:19;;;;;;;1.73;1.30;;;14.20;99.90;;;;;;4998566;28;20266;-52
2023/09/01 06:48:48;;;;;;;2.70;1.27;;;14.30;99.90;;;;;;5018545;28;20224;-52
2023/09/01 06:51:15;;;;;;;5.00;1.20;;;14.30;99.90;;;;;;5012807;28;20319;-52
2023/09/01 06:53:42;;;;;;;3.97;1.30;;;14.30;99.90;;;;;;5018747;28;20207;-47
2023/09/01 06:56:09;;;;;;;2.27;1.40;;;14.30;99.90;;;;;;5011338;28;20243;-48
2023/09/01 06:58:36;;;;;;;2.20;1.60;;;14.30;99.90;;;;;;5023791;28;20219;-51
2023/09/01 07:01:08;;;;;;;3.17;1.37;;;14.40;99.90;;;;;;5005316;28;20289;-47
2023/09/01 07:03:36;;;;;;;2.97;1.33;;;14.40;99.90;;;;;;5009760;28;20218;-50
2023/09/01 07:06:04;;;;;;;1.20;1.10;;;14.50;99.90;;;;;;5020888;28;20237;-46
2023/09/01 07:08:31;;;;;;;3.77;1.30;;;14.50;99.90;;;;;;5012844;28;20200;-55
2023/09/01 07:11:01;;;;;;;2.30;1.30;;;14.50;99.90;;;;;;5025098;28;20247;-48
2023/09/01 07:13:28;;;;;;;1.50;1.10;;;14.60;99.90;;;;;;5014063;28;20283;-52
2023/09/01 07:15:55;;;;;;;1.73;1.00;;;14.70;99.90;;;;;;5010328;28;20243;-52
2023/09/01 07:18:23;;;;;;;2.07;1.07;;;14.70;99.90;;;;;;5012391;28;20208;-50
2023/09/01 07:20:51;;;;;;;3.03;1.33;;;14.80;99.90;;;;;;5012121;28;20211;-55
2023/09/01 07:23:18;;;;;;;2.83;1.20;;;14.90;99.90;;;;;;5009665;28;20208;-55
2023/09/01 07:25:45;;;;;;;2.70;0.97;;;15.00;99.90;;;;;;5019301;28;20215;-52
2023/09/01 07:28:12;;;;;;;4.97;1.17;;;15.10;99.90;;;;;;5014815;28;20200;-53
2023/09/01 07:30:39;;;;;;;1.60;0.93;;;15.20;99.90;;;;;;5002806;28;20220;-48
2023/09/01 07:33:06;;;;;;;4.60;0.83;;;15.30;99.90;;;;;;5024560;28;20203;-51
2023/09/01 07:35:33;;;;;;;1.63;0.90;;;15.40;99.90;;;;;;5014928;28;20240;-49
2023/09/01 07:38:03;;;;;;;1.83;1.07;;;15.40;99.90;;;;;;5012711;28;20657;-52
2023/09/01 07:40:32;;;;;;;3.90;1.10;;;15.50;99.90;;;;;;5024527;28;20582;-50
2023/09/01 07:42:59;;;;;;;3.60;1.63;;;15.60;99.90;;;;;;5014868;28;20270;-53
2023/09/01 07:45:26;;;;;;;2.00;0.93;;;15.70;99.90;;;;;;5020465;28;20212;-52
2023/09/01 07:47:53;;;;;;;4.30;1.00;;;15.80;99.90;;;;;;5019310;28;20347;-55
2023/09/01 07:50:23;;;;;;;1.43;1.00;;;15.80;99.90;;;;;;5021401;28;20869;-51
2023/09/01 07:52:50;;;;;;;4.03;1.20;;;15.90;99.90;;;;;;5015556;28;21742;-53
2023/09/01 07:55:18;;;;;;;2.37;0.80;;;15.90;99.90;;;;;;5003170;28;20226;-53
2023/09/01 07:57:45;;;;;;;5.40;1.60;;;16.00;99.90;;;;;;5018880;28;21239;-54
2023/09/01 08:00:13;;;;;;;5.00;1.43;;;16.10;99.90;;;;;;5030568;28;20254;-49
2023/09/01 08:02:43;;;;;;;1.67;0.70;;;16.20;99.90;;;;;;5004575;28;20287;-49
2023/09/01 08:05:10;;;;;;;4.17;1.03;;;16.20;99.90;;;;;;5029720;28;20232;-53
2023/09/01 08:07:37;;;;;;;3.60;0.70;;;16.30;99.90;;;;;;5014941;28;20220;-53
2023/09/01 08:10:05;;;;;;;3.77;1.00;;;16.30;99.90;;;;;;5012683;28;20223;-50
2023/09/01 08:12:33;;;;;;;1.83;0.77;;;16.40;99.90;;;;;;5023401;28;20242;-47
2023/09/01 08:15:00;;;;;;;4.47;0.90;;;16.50;99.90;;;;;;5018413;28;20281;-55
2023/09/01 08:17:27;;;;;;;1.80;0.93;;;16.60;99.90;;;;;;5013630;28;20262;-51
2023/09/01 08:19:54;;;;;;;1.90;1.13;;;16.60;99.90;;;;;;5016754;28;20949;-55
2023/09/01 08:22:21;;;;;;;2.67;1.10;;;16.70;99.90;;;;;;5014887;28;20265;-48
2023/09/01 08:24:47;;;;;;;3.13;1.03;;;16.80;99.90;;;;;;5006007;28;20311;-50
2023/09/01 08:27:14;;;;;;;4.10;0.90;;;16.90;99.90;;;;;;5023818;28;20195;-51
2023/09/01 08:29:44;;;;;;;4.50;1.10;;;17.00;99.90;;;;;;5008958;28;20207;-52
2023/09/01 08:32:11;;;;;;;3.30;0.80;;;17.10;99.90;;;;;;5022767;28;20763;-55
2023/09/01 08:34:38;;;;;;;3.30;0.83;;;17.10;99.90;;;;;;4998119;28;20270;-50
2023/09/01 08:37:05;;;;;;;1.77;1.00;;;17.20;99.90;;;;;;5013653;28;20204;-53
2023/09/01 08:39:33;;;;;;;1.30;1.03;;;17.20;99.90;;;;;;5013452;28;20201;-47
2023/09/01 08:42:00;;;;;;;3.27;1.00;;;17.30;99.90;;;;;;5013062;28;20201;-48
2023/09/01 08:44:28;;;;;;;2.73;0.97;;;17.40;99.90;;;;;;5012046;28;20325;-51
2023/09/01 08:46:57;;;;;;;6.00;1.03;;;17.40;99.90;;;;;;5011570;28;20664;-46
2023/09/01 08:49:26;;;;;;;3.63;1.30;;;17.50;99.90;;;;;;4996203;28;20213;-54
2023/09/01 08:51:55;;;;;;;1.37;0.93;;;17.60;99.90;;;;;;5021637;28;20208;-52
2023/09/01 08:54:23;;;;;;;2.87;1.00;;;17.60;99.90;;;;;;5016276;28;20199;-53
2023/09/01 08:56:50;;;;;;;4.53;1.47;;;17.50;99.90;;;;;;5012963;28;20250;-46
2023/09/01 08:59:17;;;;;;;4.57;0.97;;;17.60;99.90;;;;;;5027772;28;20196;-49
2023/09/01 09:01:44;;;;;;;5.37;1.00;;;17.60;99.90;;;;;;5013098;28;20647;-44
2023/09/01 09:04:12;;;;;;;6.37;1.10;;;17.60;99.90;;;;;;4995843;28;21494;-53
2023/09/01 09:06:40;;;;;;;3.60;1.30;;;17.70;99.90;;;;;;5024479;28;20687;-50
2023/09/01 09:09:11;;;;;;;0.83;0.80;;;17.70;99.90;;;;;;5008034;28;20293;-54
2023/09/01 09:11:39;;;;;;;2.10;0.90;;;17.70;99.90;;;;;;5024448;28;20295;-53
2023/09/01 09:14:07;;;;;;;2.10;0.90;;;17.70;99.90;;;;;;5015662;28;20451;-52
2023/09/01 09:16:34;;;;;;;4.83;0.93;;;17.80;99.90;;;;;;5017501;28;20748;-54
2023/09/01 09:19:09;;;;;;;2.73;0.87;;;17.90;99.90;;;;;;5000176;28;20207;-54
2023/09/01 09:21:37;;;;;;;4.70;1.00;;;17.90;99.90;;;;;;5028073;28;20275;-54
2023/09/01 09:24:05;;;;;;;1.63;0.80;;;17.90;99.90;;;;;;5008572;28;20216;-53
2023/09/01 09:26:33;;;;;;;1.33;1.00;;;17.80;99.90;;;;;;5026193;28;20228;-52
2023/09/01 09:29:06;;;;;;;3.70;1.27;;;17.70;99.90;;;;;;5017682;28;20289;-53
2023/09/01 09:31:36;;;;;;;5.10;1.10;;;17.80;99.90;;;;;;5015722;28;20322;-54
2023/09/01 09:34:16;;;;;;;1.97;1.00;;;18.00;99.90;;;;;;5001452;28;20351;-53
2023/09/01 09:36:47;;;;;;;2.30;0.90;;;18.10;99.90;;;;;;5023073;28;20216;-49
2023/09/01 09:39:24;;;;;;;3.93;0.83;;;18.20;99.90;;;;;;5018620;28;20277;-54
2023/09/01 09:41:52;;;;;;;1.50;0.90;;;18.20;99.90;;;;;;5005815;28;20207;-48
2023/09/01 09:44:24;;;;;;;1.50;0.80;;;18.30;99.90;;;;;;5018520;28;20671;-56
2023/09/01 09:46:51;;;;;;;1.60;0.93;;;18.40;99.90;;;;;;5014999;28;20197;-52
2023/09/01 09:49:19;;;;;;;1.80;0.80;;;18.40;99.90;;;;;;4996682;28;20212;-51
2023/09/01 09:51:50;;;;;;;3.17;0.90;;;18.50;99.90;;;;;;5009492;28;20939;-50
2023/09/01 09:54:21;;;;;;;3.13;0.80;;;18.70;99.90;;;;;;5017381;28;20279;-50
2023/09/01 09:56:50;;;;;;;5.03;0.83;;;18.80;99.90;;;;;;5011952;28;20231;-45
2023/09/01 09:59:25;;;;;;;2.70;1.03;;;19.00;99.90;;;;;;5017038;28;20195;-52
2023/09/01 10:01:55;;;;;;;1.97;1.07;;;19.10;99.90;;;;;;5021847;28;20728;-50
2023/09/01 10:04:24;;;;;;;3.10;1.07;;;19.00;99.90;;;;;;5011562;28;20246;-50
2023/09/01 10:06:53;;;;;;;1.97;1.17;;;18.90;99.90;;;;;;5004114;28;20203;-49
2023/09/01 10:09:21;;;;;;;2.57;1.00;;;19.00;99.90;;;;;;5020408;28;20212;-51
2023/09/01 10:11:48;;;;;;;3.53;1.00;;;19.10;99.90;;;;;;5005220;28;20196;-46
2023/09/01 10:14:20;;;;;;;1.33;0.80;;;19.20;99.90;;;;;;5016646;28;20296;-49
2023/09/01 10:16:48;;;;;;;3.13;1.17;;;19.20;99.90;;;;;;5013038;28;20197;-48
2023/09/01 10:19:17;;;;;;;2.50;1.00;;;19.10;99.90;;;;;;5016860;28;20315;-55
2023/09/01 10:21:44;;;;;;;1.17;0.80;;;19.00;99.90;;;;;;5001348;28;20203;-48
2023/09/01 10:24:16;;;;;;;1.67;1.00;;;18.90;99.90;;;;;;5022186;28;20191;-49
2023/09/01 10:26:44;;;;;;;1.10;0.90;;;18.70;99.90;;;;;;5012713;28;20224;-48
2023/09/01 10:29:13;;;;;;;2.70;1.60;;;18.60;99.90;;;;;;5011316;28;20846;-52
2023/09/01 10:31:42;;;;;;;2.80;0.93;;;18.60;99.90;;;;;;5013194;28;20214;-49
2023/09/01 10:34:13;;;;;;;2.47;0.90;;;18.60;99.90;;;;;;5017575;28;20254;-50
2023/09/01 10:36:41;;;;;;;3.07;0.80;;;18.70;99.90;;;;;;5007644;28;20199;-48
2023/09/01 10:39:30;;;;;;;4.13;0.90;;;18.90;99.90;;;;;;5016388;28;20196;-48
2023/09/01 10:41:59;;;;;;;3.27;0.80;;;19.10;99.90;;;;;;5015191;28;20191;-50
2023/09/01 10:45:00;;;;;;;1.97;0.80;;;19.20;99.90;;;;;;5017077;28;20234;-48
2023/09/01 10:47:45;;;;;;;4.53;1.07;;;19.40;99.90;;;;;;5018526;28;20258;-51
2023/09/01 10:50:13;;;;;;;2.47;1.43;;;19.40;99.90;;;;;;5018631;28;20200;-49
2023/09/01 10:52:42;;;;;;;0.80;0.60;;;19.50;99.90;;;;;;5006042;28;20223;-47
2023/09/01 10:55:11;;;;;;;2.43;0.83;;;19.60;99.90;;;;;;5002996;28;20223;-47
2023/09/01 10:57:42;;;;;;;94.97;25.63;;;19.70;99.90;;;;;;5013275;28;20210;-50
2023/09/01 11:00:26;;;;;;;2.10;1.40;;;19.80;99.90;;;;;;5009797;28;20212;-47
2023/09/01 11:02:54;;;;;;;1.27;0.80;;;19.90;99.90;;;;;;5024286;28;20635;-48
2023/09/01 11:05:39;;;;;;;1.23;0.60;;;20.00;99.90;;;;;;5015172;28;20238;-48
2023/09/01 11:08:10;;;;;;;2.53;0.83;;;20.10;99.90;;;;;;5022054;28;20199;-47
2023/09/01 11:10:39;;;;;;;1.40;1.00;;;20.10;99.90;;;;;;5011860;28;20184;-50
2023/09/01 11:13:14;;;;;;;2.17;0.83;;;20.30;99.90;;;;;;5021384;28;20215;-47
2023/09/01 11:15:46;;;;;;;0.93;0.70;;;20.30;99.90;;;;;;5009745;28;20227;-45
2023/09/01 11:18:18;;;;;;;2.20;0.93;;;20.10;99.90;;;;;;5022206;28;20710;-54
2023/09/01 11:20:46;;;;;;;0.90;0.90;;;20.00;99.90;;;;;;5025356;28;20275;-44
2023/09/01 11:23:13;;;;;;;0.70;0.60;;;20.10;99.90;;;;;;5008294;28;20294;-53
2023/09/01 11:25:42;;;;;;;3.40;0.90;;;20.10;99.90;;;;;;5013266;28;20909;-49
2023/09/01 11:28:14;;;;;;;1.57;0.70;;;20.20;99.90;;;;;;5016787;28;20307;-53
2023/09/01 11:30:55;;;;;;;2.60;1.00;;;20.30;99.90;;;;;;5011337;28;20809;-50
2023/09/01 11:33:23;;;;;;;2.23;0.67;;;20.40;99.90;;;;;;5012328;28;20575;-50
2023/09/01 11:36:04;;;;;;;1.67;0.70;;;20.20;99.90;;;;;;5030419;28;20212;-47
2023/09/01 11:38:32;;;;;;;1.67;1.10;;;20.10;99.90;;;;;;4991303;28;20204;-50
2023/09/01 11:41:02;;;;;;;1.57;0.70;;;20.20;99.90;;;;;;5024628;28;20192;-43
2023/09/01 11:43:30;;;;;;;3.03;0.73;;;20.20;99.90;;;;;;5013064;28;20944;-46
2023/09/01 11:45:57;;;;;;;2.17;0.70;;;20.20;99.90;;;;;;5019711;28;20683;-43
2023/09/01 11:48:25;;;;;;;1.57;0.80;;;20.20;99.90;;;;;;5012850;28;20725;-49
2023/09/01 11:50:54;;;;;;;1.00;0.60;;;20.20;99.90;;;;;;5024025;28;20309;-46
2023/09/01 11:53:25;;;;;;;1.73;0.63;;;20.10;99.90;;;;;;5010537;28;20227;-55
2023/09/01 11:55:58;;;;;;;1.77;0.80;;;20.00;99.90;;;;;;5004645;28;20230;-44
2023/09/01 11:58:27;;;;;;;1.77;0.90;;;20.10;99.90;;;;;;5024204;28;20588;-50
2023/09/01 12:00:55;;;;;;;1.97;0.70;;;20.10;99.90;;;;;;5009459;28;20200;-44
2023/09/01 12:03:23;;;;;;;1.70;0.80;;;20.20;99.90;;;;;;5022589;28;20192;-50
2023/09/01 12:05:51;;;;;;;1.53;0.93;;;20.30;99.90;;;;;;5030124;28;20227;-45
2023/09/01 12:08:25;;;;;;;2.97;0.90;;;20.30;99.90;;;;;;5007770;28;20290;-54
2023/09/01 12:11:05;;;;;;;0.80;0.80;;;20.40;99.90;;;;;;5004672;28;20203;-48
2023/09/01 12:13:34;;;;;;;1.10;0.85;;;20.30;99.90;;;;;;5010017;28;20342;-50
2023/09/01 12:16:02;;;;;;;1.33;0.80;;;20.30;99.90;;;;;;5029662;28;20215;-45
2023/09/01 12:18:33;;;;;;;1.40;1.10;;;20.30;99.90;;;;;;4995483;28;20203;-45
2023/09/01 12:21:00;;;;;;;1.27;0.95;;;20.30;99.90;;;;;;5012350;28;20243;-44
2023/09/01 12:23:29;;;;;;;1.88;0.98;;;20.50;99.90;;;;;;5005620;28;20200;-46
2023/09/01 12:25:57;;;;;;;1.73;0.80;;;20.60;99.90;;;;;;5001577;28;20236;-43
2023/09/01 12:28:27;;;;;;;1.37;0.73;;;20.50;99.90;;;;;;5023010;28;20196;-44
2023/09/01 12:30:56;;;;;;;1.25;0.90;;;20.50;99.90;;;;;;5005114;28;20200;-44
2023/09/01 12:33:24;;;;;;;2.72;1.10;;;20.60;99.90;;;;;;5011760;28;20778;-52
2023/09/01 12:35:53;;;;;;;2.92;1.00;;;20.70;99.90;;;;;;5019295;28;20212;-45
2023/09/01 12:38:21;;;;;;;1.10;0.80;;;20.60;99.90;;;;;;5006991;28;20196;-50
2023/09/01 12:40:49;;;;;;;0.93;0.93;;;20.60;99.90;;;;;;4996057;28;20206;-50
2023/09/01 12:43:16;;;;;;;3.30;0.75;;;20.60;99.90;;;;;;5012410;28;20283;-47
2023/09/01 12:45:43;;;;;;;2.50;0.82;;;20.70;99.90;;;;;;5007059;28;20271;-44
2023/09/01 12:48:12;;;;;;;1.45;0.90;;;20.80;99.90;;;;;;5013388;28;20298;-50
2023/09/01 12:50:38;;;;;;;0.93;0.60;;;20.80;99.90;;;;;;5012095;28;20564;-52
2023/09/01 12:53:06;;;;;;;1.90;0.88;;;20.90;99.90;;;;;;5024785;28;20215;-51